createdAt,value
2023-04-07T00:00:05.692Z,0.89
2023-04-07T00:05:13.480Z,0.92
2023-04-07T00:10:15.496Z,0.92
2023-04-07T00:15:17.397Z,0.89
2023-04-07T00:20:19.383Z,0.90
2023-04-07T00:25:21.357Z,0.93
2023-04-07T00:30:23.092Z,0.97
2023-04-07T00:35:25.011Z,0.91
2023-04-07T00:40:26.973Z,0.91
2023-04-07T00:45:28.750Z,0.94
2023-04-07T00:50:30.597Z,0.96
2023-04-07T00:55:32.281Z,0.93
2023-04-07T01:00:42.232Z,0.88
2023-04-07T01:06:00.164Z,0.83
2023-04-07T01:11:17.545Z,0.79
2023-04-07T01:16:49.733Z,0.78
2023-04-07T01:21:57.477Z,0.77
2023-04-07T01:27:14.119Z,0.75
2023-04-07T01:32:20.484Z,0.69
2023-04-07T01:37:23.308Z,0.69
2023-04-07T01:42:26.240Z,0.71
2023-04-07T01:47:33.019Z,0.75
2023-04-07T01:52:36.562Z,0.70
2023-04-07T01:57:38.425Z,0.68
2023-04-07T02:02:50.805Z,0.68
2023-04-07T02:07:58.165Z,0.69
2023-04-07T02:13:02.898Z,0.68
2023-04-07T02:18:10.699Z,0.66
2023-04-07T02:23:16.685Z,0.66
2023-04-07T02:28:28.641Z,0.63
2023-04-07T02:33:39.748Z,0.64
2023-04-07T02:38:41.470Z,0.64
2023-04-07T02:43:43.142Z,0.63
2023-04-07T02:48:44.931Z,0.44
2023-04-07T02:53:46.747Z,0.65
2023-04-07T02:58:48.544Z,0.62
2023-04-07T03:03:51.316Z,0.62
2023-04-07T03:08:59.017Z,0.61
2023-04-07T03:14:00.932Z,0.62
2023-04-07T03:19:03.308Z,0.62
2023-04-07T03:24:07.477Z,0.69
2023-04-07T03:29:09.157Z,0.77
2023-04-07T03:34:11.133Z,0.74
2023-04-07T03:39:14.853Z,0.74
2023-04-07T03:44:16.611Z,0.79
2023-04-07T03:49:18.400Z,0.74
2023-04-07T03:54:20.465Z,0.77
2023-04-07T03:59:22.548Z,0.85
2023-04-07T04:04:42.449Z,0.81
2023-04-07T04:09:44.731Z,0.78
2023-04-07T04:14:46.955Z,0.82
2023-04-07T04:19:49.330Z,0.88
2023-04-07T04:24:59.174Z,0.90
2023-04-07T04:30:02.219Z,0.89
2023-04-07T04:35:11.851Z,0.93
2023-04-07T04:40:21.921Z,0.44
2023-04-07T04:45:24.322Z,0.91
2023-04-07T04:50:26.116Z,0.91
2023-04-07T04:55:28.391Z,0.97
2023-04-07T05:00:33.276Z,0.97
2023-04-07T05:05:37.521Z,0.88
2023-04-07T05:10:40.343Z,0.86
2023-04-07T05:15:45.008Z,0.90
2023-04-07T05:20:49.974Z,0.83
2023-04-07T05:25:52.066Z,0.86
2023-04-07T05:30:54.064Z,0.96
2023-04-07T05:35:56.895Z,1.02
2023-04-07T05:40:58.740Z,1.02
2023-04-07T05:46:04.443Z,0.96
2023-04-07T05:51:07.129Z,0.99
2023-04-07T05:56:09.188Z,1.05
2023-04-07T06:01:19.866Z,1.10
2023-04-07T06:06:22.403Z,1.18
2023-04-07T06:11:24.250Z,1.21
2023-04-07T06:16:26.258Z,1.30
2023-04-07T06:21:27.922Z,1.30
2023-04-07T06:26:33.211Z,1.36
2023-04-07T06:31:35.286Z,1.48
2023-04-07T06:36:37.680Z,1.52
2023-04-07T06:41:42.934Z,1.55
2023-04-07T06:46:47.389Z,1.59
2023-04-07T06:51:49.054Z,1.55
2023-04-07T06:56:52.722Z,1.57
2023-04-07T07:01:55.304Z,1.61
2023-04-07T07:06:57.097Z,1.64
2023-04-07T07:11:58.743Z,1.75
2023-04-07T07:17:00.493Z,1.88
2023-04-07T07:22:04.086Z,2.01
2023-04-07T07:27:05.915Z,2.15
2023-04-07T07:32:07.616Z,2.18
2023-04-07T07:37:09.564Z,2.24
2023-04-07T07:42:11.184Z,2.31
2023-04-07T07:47:12.899Z,2.26
2023-04-07T07:52:14.887Z,2.23
2023-04-07T07:57:16.900Z,2.34
2023-04-07T08:02:18.737Z,2.46
2023-04-07T08:07:20.477Z,2.41
2023-04-07T08:12:22.452Z,2.45
2023-04-07T08:17:24.531Z,2.41
2023-04-07T08:22:26.181Z,2.29
2023-04-07T08:27:27.823Z,2.39
2023-04-07T08:32:45.073Z,2.55
2023-04-07T08:37:47.426Z,2.59
2023-04-07T08:42:49.519Z,2.54
2023-04-07T08:47:58.800Z,2.63
2023-04-07T08:53:07.295Z,2.79
2023-04-07T08:58:12.383Z,2.75
2023-04-07T09:03:14.213Z,2.79
2023-04-07T09:08:15.982Z,2.94
2023-04-07T09:13:17.763Z,2.83
2023-04-07T09:18:19.827Z,2.78
2023-04-07T09:23:32.915Z,2.82
2023-04-07T09:28:42.108Z,2.79
2023-04-07T09:33:43.863Z,2.95
2023-04-07T09:38:46.240Z,3.00
2023-04-07T09:43:48.519Z,3.18
2023-04-07T09:49:03.659Z,3.25
2023-04-07T09:54:05.397Z,3.16
2023-04-07T09:59:09.400Z,3.22
2023-04-07T10:04:11.399Z,3.41
2023-04-07T10:09:14.503Z,3.51
2023-04-07T10:14:31.955Z,3.51
2023-04-07T10:19:46.807Z,3.40
2023-04-07T10:25:05.102Z,3.20
2023-04-07T10:30:13.820Z,3.15
2023-04-07T10:35:17.092Z,3.15
2023-04-07T10:40:18.801Z,3.17
2023-04-07T10:45:49.396Z,3.30
2023-04-07T10:51:14.240Z,3.27
2023-04-07T10:56:16.052Z,3.07
2023-04-07T11:01:19.771Z,3.12
2023-04-07T11:06:21.494Z,3.21
2023-04-07T11:11:38.822Z,3.27
2023-04-07T11:16:53.590Z,3.27
2023-04-07T11:22:29.249Z,3.12
2023-04-07T11:27:32.791Z,3.23
2023-04-07T11:32:34.470Z,3.27
2023-04-07T11:37:36.666Z,3.29
2023-04-07T11:42:40.095Z,3.30
2023-04-07T11:47:46.846Z,3.34
2023-04-07T11:52:49.062Z,3.25
2023-04-07T11:57:52.158Z,3.32
2023-04-07T12:02:54.371Z,3.17
2023-04-07T12:07:57.674Z,3.26
2023-04-07T12:12:59.614Z,3.25
2023-04-07T12:18:02.789Z,3.20
2023-04-07T12:23:04.599Z,3.26
2023-04-07T12:28:06.261Z,3.33
2023-04-07T12:33:08.393Z,3.31
2023-04-07T12:38:10.154Z,3.32
2023-04-07T12:43:11.992Z,3.27
2023-04-07T12:48:13.690Z,3.23
2023-04-07T12:53:15.405Z,3.39
2023-04-07T12:58:17.474Z,3.58
2023-04-07T13:03:19.689Z,3.55
2023-04-07T13:08:22.036Z,3.44
2023-04-07T13:13:23.897Z,3.41
2023-04-07T13:18:25.711Z,3.37
2023-04-07T13:23:27.569Z,3.32
2023-04-07T13:28:29.189Z,3.36
2023-04-07T13:33:30.879Z,3.33
2023-04-07T13:38:32.793Z,3.21
2023-04-07T13:43:34.415Z,3.17
2023-04-07T13:48:36.144Z,3.17
2023-04-07T13:53:38.088Z,3.23
2023-04-07T13:58:39.829Z,3.26
2023-04-07T14:03:41.895Z,3.22
2023-04-07T14:08:43.915Z,3.19
2023-04-07T14:13:46.726Z,3.32
2023-04-07T14:18:51.514Z,3.43
2023-04-07T14:23:53.744Z,3.46
2023-04-07T14:28:55.608Z,3.50
2023-04-07T14:33:57.235Z,3.53
2023-04-07T14:38:58.889Z,3.51
2023-04-07T14:44:00.582Z,3.55
2023-04-07T14:49:02.259Z,3.54
2023-04-07T14:54:03.957Z,3.47
2023-04-07T14:59:05.788Z,3.48
2023-04-07T15:04:07.677Z,3.43
2023-04-07T15:09:09.707Z,3.43
2023-04-07T15:14:12.206Z,3.48
2023-04-07T15:19:13.879Z,3.51
2023-04-07T15:24:16.498Z,3.60
2023-04-07T15:29:18.315Z,3.69
2023-04-07T15:34:19.902Z,3.67
2023-04-07T15:39:21.688Z,3.71
2023-04-07T15:44:23.314Z,3.69
2023-04-07T15:49:26.659Z,3.71
2023-04-07T15:54:28.964Z,3.76
2023-04-07T15:59:31.135Z,3.82
2023-04-07T16:04:33.231Z,3.83
2023-04-07T16:09:34.857Z,3.79
2023-04-07T16:14:36.621Z,3.79
2023-04-07T16:19:38.725Z,3.82
2023-04-07T16:24:40.632Z,3.73
2023-04-07T16:29:43.147Z,3.66
2023-04-07T16:34:44.817Z,3.68
2023-04-07T16:39:46.591Z,3.77
2023-04-07T16:44:48.293Z,3.80
2023-04-07T16:49:50.072Z,3.74
2023-04-07T16:54:51.927Z,3.66
2023-04-07T16:59:53.648Z,3.62
2023-04-07T17:04:55.445Z,3.74
2023-04-07T17:09:57.191Z,3.78
2023-04-07T17:14:58.784Z,3.80
2023-04-07T17:20:00.625Z,3.80
2023-04-07T17:25:04.560Z,3.80
2023-04-07T17:30:07.739Z,3.81
2023-04-07T17:35:09.650Z,3.85
2023-04-07T17:40:11.926Z,3.89
2023-04-07T17:45:14.110Z,3.86
2023-04-07T17:50:18.457Z,3.81
2023-04-07T17:55:20.007Z,3.76
2023-04-07T18:00:21.674Z,3.59
2023-04-07T18:05:23.524Z,3.73
2023-04-07T18:10:29.504Z,3.69
2023-04-07T18:15:31.626Z,3.66
2023-04-07T18:20:33.690Z,3.67
2023-04-07T18:25:35.622Z,3.69
2023-04-07T18:30:37.428Z,3.71
2023-04-07T18:35:39.087Z,3.69
2023-04-07T18:40:40.725Z,3.70
2023-04-07T18:45:42.537Z,3.70
2023-04-07T18:50:49.086Z,3.71
2023-04-07T18:55:51.233Z,3.70
2023-04-07T19:00:54.549Z,3.67
2023-04-07T19:05:56.610Z,3.66
2023-04-07T19:10:58.294Z,3.64
2023-04-07T19:16:01.466Z,3.61
2023-04-07T19:21:03.259Z,3.58
2023-04-07T19:26:06.091Z,3.59
2023-04-07T19:31:08.918Z,3.64
2023-04-07T19:36:12.152Z,3.61
2023-04-07T19:41:13.902Z,3.56
2023-04-07T19:46:16.619Z,3.53
2023-04-07T19:51:18.502Z,3.51
2023-04-07T19:56:24.687Z,3.56
2023-04-07T20:01:49.048Z,3.63
2023-04-07T20:07:24.628Z,3.63
2023-04-07T20:12:27.050Z,3.60
2023-04-07T20:17:38.568Z,3.66
2023-04-07T20:22:43.249Z,3.10
2023-04-07T20:27:55.810Z,3.97
2023-04-07T20:33:03.721Z,4.02
2023-04-07T20:38:06.012Z,4.00
2023-04-07T20:43:07.918Z,3.98
2023-04-07T20:48:09.716Z,3.94
2023-04-07T20:53:11.452Z,3.64
2023-04-07T20:58:14.520Z,4.04
2023-04-07T21:03:16.556Z,4.10
2023-04-07T21:08:21.160Z,4.12
2023-04-07T21:13:40.933Z,4.07
2023-04-07T21:18:42.636Z,4.08
2023-04-07T21:23:44.330Z,4.12
2023-04-07T21:28:46.059Z,4.13
2023-04-07T21:33:48.145Z,4.11
2023-04-07T21:38:51.958Z,4.11
2023-04-07T21:43:54.470Z,4.21
2023-04-07T21:48:58.426Z,4.25
2023-04-07T21:54:01.817Z,4.39
2023-04-07T21:59:05.550Z,4.46
2023-04-07T22:04:07.732Z,4.49
2023-04-07T22:09:23.069Z,4.55
2023-04-07T22:14:53.778Z,4.63
2023-04-07T22:23:46.101Z,4.67
2023-04-07T22:28:47.468Z,4.67
2023-04-07T22:33:48.732Z,4.75
2023-04-07T22:38:49.976Z,4.81
2023-04-07T22:43:51.268Z,4.92
2023-04-07T22:48:52.320Z,4.93
2023-04-07T22:53:53.291Z,4.92
2023-04-07T22:58:54.354Z,4.88
2023-04-07T23:03:55.313Z,4.77
2023-04-07T23:08:58.211Z,4.68
2023-04-07T23:14:05.446Z,4.52
2023-04-07T23:19:10.795Z,4.44
2023-04-07T23:24:11.764Z,4.31
2023-04-07T23:29:12.776Z,4.20
2023-04-07T23:34:13.743Z,4.16
2023-04-07T23:39:22.307Z,4.07
2023-04-07T23:44:23.991Z,3.96
2023-04-07T23:49:28.355Z,3.92
2023-04-07T23:54:29.349Z,3.88
2023-04-07T23:59:30.550Z,3.79
